Time;durP1;ratioP1;P1;durP2;ratioP2;P2;SDS_P1;SDS_P2;PMS_P1;PMS_P2;Temp;Humidity;BMP_temperature;BMP_pressure;BME280_temperature;BME280_humidity;BME280_pressure;Samples;Min_cycle;Max_cycle;Signal;HPM_P1;HPM_P2
2021/12/09 00:01:51;;;;;;;17.42;10.23;;;6.60;99.90;;;6.61;83.91;99901.47;5115250;28;20073;-67
2021/12/09 00:04:27;;;;;;;22.02;9.75;;;6.60;99.90;;;6.61;83.76;99900.59;5114856;28;20047;-67
2021/12/09 00:06:56;;;;;;;22.75;9.98;;;6.50;99.90;;;6.63;83.86;99894.47;5114873;28;20067;-67
2021/12/09 00:09:25;;;;;;;24.48;10.82;;;6.50;99.90;;;6.64;83.99;99913.75;5115072;28;20051;-64
2021/12/09 00:11:54;;;;;;;23.67;10.07;;;6.60;99.90;;;6.57;84.19;99909.38;5114573;28;20043;-64
2021/12/09 00:14:26;;;;;;;20.20;10.52;;;6.50;99.90;;;6.58;84.78;99903.25;5114883;28;20082;-64
2021/12/09 00:16:57;;;;;;;24.50;10.60;;;6.50;99.90;;;6.64;84.13;99905.88;5115209;28;20036;-65
2021/12/09 00:19:27;;;;;;;20.33;11.13;;;6.50;99.90;;;6.53;84.14;99920.75;5096667;28;20054;-64
2021/12/09 00:21:56;;;;;;;23.57;10.93;;;6.50;99.90;;;6.53;84.75;99905.00;5114494;28;20441;-64
2021/12/09 00:24:25;;;;;;;21.80;11.60;;;6.50;99.90;;;6.50;84.53;99911.16;5114485;28;20047;-65
2021/12/09 00:26:55;;;;;;;18.90;11.03;;;6.40;99.90;;;6.49;84.65;99904.16;5114657;28;20430;-65
2021/12/09 00:29:24;;;;;;;20.35;11.18;;;6.40;99.90;;;6.32;84.43;99888.47;5096336;28;20047;-64
2021/12/09 00:31:53;;;;;;;25.13;11.17;;;6.40;99.90;;;6.25;85.22;99923.47;5114265;28;20074;-64
2021/12/09 00:34:29;;;;;;;34.20;11.80;;;6.30;99.90;;;6.17;85.44;99908.63;5114807;28;20112;-67
2021/12/09 00:37:02;;;;;;;30.20;11.93;;;6.20;99.90;;;6.11;85.63;99920.03;5114311;28;20063;-66
2021/12/09 00:39:31;;;;;;;25.97;11.73;;;6.10;99.90;;;6.14;86.23;99906.00;5096175;28;20052;-67
2021/12/09 00:42:01;;;;;;;22.73;11.23;;;6.10;99.90;;;6.26;85.98;99922.63;5114120;28;20035;-67
2021/12/09 00:44:29;;;;;;;27.33;11.10;;;6.20;99.90;;;6.26;85.80;99924.34;5114378;28;20051;-67
2021/12/09 00:46:57;;;;;;;25.50;11.50;;;6.20;99.90;;;6.01;86.16;99899.91;5114050;28;20100;-66
2021/12/09 00:49:30;;;;;;;30.67;12.33;;;6.10;99.90;;;6.22;85.96;99918.25;5114180;28;20047;-67
2021/12/09 00:51:58;;;;;;;29.87;11.83;;;6.20;99.90;;;6.17;86.17;99927.91;5113922;28;20118;-67
2021/12/09 00:54:28;;;;;;;30.30;11.93;;;6.10;99.90;;;6.13;86.03;99918.28;5114232;28;20043;-67
2021/12/09 00:56:57;;;;;;;28.83;12.23;;;6.10;99.90;;;5.99;85.67;99930.53;5095741;28;20070;-67
2021/12/09 00:59:27;;;;;;;31.03;12.27;;;6.00;99.90;;;5.81;85.91;99929.63;5095231;28;20067;-67
2021/12/09 01:01:55;;;;;;;27.48;13.00;;;5.90;99.90;;;5.57;86.92;99913.91;5113770;28;20073;-67
2021/12/09 01:04:24;;;;;;;27.33;12.90;;;5.70;99.90;;;5.77;87.11;99917.41;5113687;28;20102;-66
2021/12/09 01:06:52;;;;;;;31.27;12.33;;;5.70;99.90;;;5.64;87.14;99923.53;5113603;28;20063;-66
2021/12/09 01:09:21;;;;;;;31.27;13.47;;;5.70;99.90;;;5.54;87.44;99917.41;5113907;28;20093;-67
2021/12/09 01:11:50;;;;;;;27.97;11.77;;;5.60;99.90;;;5.55;87.57;99918.28;5095271;28;20056;-67
2021/12/09 01:14:18;;;;;;;32.60;12.60;;;5.50;99.90;;;5.57;87.52;99914.78;5113274;28;20067;-67
2021/12/09 01:16:48;;;;;;;35.50;12.10;;;5.60;99.90;;;4.90;87.45;99806.41;5095198;28;20546;-67
2021/12/09 01:19:17;;;;;;;34.13;12.88;;;5.50;99.90;;;5.54;87.70;99925.25;5113276;28;20051;-69
2021/12/09 01:21:46;;;;;;;35.40;13.53;;;5.50;99.90;;;5.40;88.04;99924.41;5113467;28;20374;-68
2021/12/09 01:24:14;;;;;;;30.03;13.23;;;5.50;99.90;;;5.36;88.32;99920.88;5113581;28;20073;-68
2021/12/09 01:26:45;;;;;;;31.57;12.90;;;5.40;99.90;;;5.48;88.10;99918.28;5113858;28;20093;-68
2021/12/09 01:29:17;;;;;;;33.10;13.30;;;5.50;99.90;;;5.40;87.91;99921.78;5113629;28;20386;-68
2021/12/09 01:31:53;;;;;;;38.97;13.40;;;5.50;99.90;;;5.37;88.13;99914.78;5114027;28;20035;-68
2021/12/09 01:34:23;;;;;;;34.10;12.47;;;5.40;99.90;;;5.35;88.01;99913.91;5113436;28;20116;-68
2021/12/09 01:36:52;;;;;;;30.80;12.15;;;5.40;99.90;;;5.35;88.43;99919.16;5113510;28;20436;-68
2021/12/09 01:39:21;;;;;;;34.77;11.60;;;5.40;99.90;;;5.45;88.06;99920.03;5113953;28;20059;-68
2021/12/09 01:41:50;;;;;;;27.97;11.20;;;5.50;99.90;;;5.56;88.21;99914.78;5113506;28;20134;-68
2021/12/09 01:44:18;;;;;;;23.73;11.30;;;5.50;99.90;;;5.59;88.18;99918.28;5113696;28;20035;-68
2021/12/09 01:46:50;;;;;;;31.57;10.93;;;5.60;99.90;;;5.72;87.50;99914.78;5113660;28;20473;-68
2021/12/09 01:49:19;;;;;;;28.17;10.17;;;5.70;99.90;;;5.87;87.27;99920.06;5113467;28;20050;-68
2021/12/09 01:51:49;;;;;;;25.53;10.77;;;5.80;99.90;;;5.74;86.61;99885.91;5113262;28;20075;-68
2021/12/09 01:54:18;;;;;;;28.52;10.25;;;5.80;99.90;;;5.90;86.93;99927.94;5113460;28;20134;-67
2021/12/09 01:56:47;;;;;;;28.83;10.17;;;5.80;99.90;;;6.00;86.48;99929.66;5113223;28;20047;-68
2021/12/09 01:59:15;;;;;;;23.63;10.13;;;5.90;99.90;;;6.00;86.25;99932.28;5113339;28;20040;-68
2021/12/09 02:01:44;;;;;;;22.93;10.80;;;5.90;99.90;;;6.07;85.69;99939.28;5094912;28;20100;-68
2021/12/09 02:04:15;;;;;;;27.60;10.57;;;5.90;99.90;;;6.12;85.80;99941.88;5113500;28;20063;-68
2021/12/09 02:06:44;;;;;;;37.28;10.88;;;6.00;99.90;;;6.10;85.26;99941.88;5113248;28;20047;-68
2021/12/09 02:09:16;;;;;;;30.07;12.30;;;6.00;99.90;;;6.06;85.26;99952.38;5113100;28;20493;-68
2021/12/09 02:11:45;;;;;;;23.60;10.43;;;6.00;99.90;;;6.03;85.24;99927.03;5117173;28;20048;-68
2021/12/09 02:14:14;;;;;;;28.30;11.17;;;6.00;99.90;;;6.05;85.23;99937.53;5117473;28;20044;-67
2021/12/09 02:16:43;;;;;;;27.33;10.27;;;5.90;99.90;;;5.84;85.58;99917.44;5117161;28;20105;-67
2021/12/09 02:19:13;;;;;;;24.70;9.83;;;5.90;99.90;;;5.97;85.48;99926.16;5117410;28;20520;-68
2021/12/09 02:21:44;;;;;;;27.60;11.30;;;5.90;99.90;;;5.86;85.10;99914.81;5117476;28;20093;-67
2021/12/09 02:24:16;;;;;;;21.70;9.23;;;5.90;99.90;;;5.88;85.00;99934.94;5117125;28;20405;-68
2021/12/09 02:26:49;;;;;;;29.13;9.83;;;5.90;99.90;;;5.93;85.49;99930.53;5117655;28;20074;-68
2021/12/09 02:29:19;;;;;;;29.50;10.70;;;5.90;99.90;;;5.98;85.25;99931.41;5116909;28;20045;-67
2021/12/09 02:31:51;;;;;;;24.85;10.60;;;5.90;99.90;;;6.01;85.10;99934.03;5117239;28;20055;-68
2021/12/09 02:34:19;;;;;;;29.90;9.90;;;5.90;99.90;;;6.04;85.06;99936.66;5116895;28;20069;-68
2021/12/09 02:36:50;;;;;;;27.77;9.23;;;5.90;99.90;;;5.97;84.80;99923.53;5117015;28;20092;-67
2021/12/09 02:39:19;;;;;;;30.90;11.17;;;5.90;99.90;;;5.95;84.63;99928.78;5117090;28;20043;-68
2021/12/09 02:41:49;;;;;;;30.40;10.63;;;5.90;99.90;;;5.86;84.95;99938.44;5116691;28;20538;-67
2021/12/09 02:44:21;;;;;;;28.63;10.65;;;5.80;99.90;;;5.97;85.06;99936.66;5116670;28;20071;-67
2021/12/09 02:46:51;;;;;;;32.43;10.37;;;5.90;99.90;;;5.92;84.78;99935.81;5098640;28;20051;-67
2021/12/09 02:49:24;;;;;;;24.33;11.30;;;5.90;99.90;;;5.79;85.08;99937.50;5116839;28;20497;-68
2021/12/09 02:51:56;;;;;;;29.37;10.40;;;5.80;99.90;;;5.90;85.32;99933.19;5098551;28;20112;-68
2021/12/09 02:54:25;;;;;;;36.13;11.37;;;5.80;99.90;;;5.61;85.66;99924.41;5116416;28;20066;-67
2021/12/09 02:56:57;;;;;;;31.33;11.83;;;5.70;99.90;;;5.70;86.18;99923.53;5098405;28;20051;-68
2021/12/09 02:59:26;;;;;;;28.40;11.77;;;5.60;99.90;;;5.75;85.85;99927.88;5116764;28;20048;-68
2021/12/09 03:01:58;;;;;;;31.60;11.80;;;5.70;99.90;;;5.71;86.23;99939.25;5116351;28;20096;-68
2021/12/09 03:04:38;;;;;;;27.93;10.73;;;5.60;99.90;;;5.80;86.22;99927.91;5116396;28;20134;-68
2021/12/09 03:07:12;;;;;;;31.57;10.90;;;5.70;99.90;;;5.57;85.86;99906.03;5116591;28;20077;-68
2021/12/09 03:09:49;;;;;;;31.00;11.07;;;5.70;99.90;;;5.85;85.67;99932.28;5116236;28;20097;-68
2021/12/09 03:12:22;;;;;;;27.73;11.80;;;5.70;99.90;;;5.76;85.67;99932.28;5116191;28;20089;-68
2021/12/09 03:14:51;;;;;;;33.83;11.57;;;5.70;99.90;;;5.83;85.68;99944.53;5116107;28;20093;-68
2021/12/09 03:17:20;;;;;;;29.27;11.30;;;5.70;99.90;;;5.81;85.44;99935.75;5116358;28;20107;-69
2021/12/09 03:19:49;;;;;;;24.60;10.50;;;5.80;99.90;;;5.80;85.56;99944.53;5116016;28;20035;-68
2021/12/09 03:22:19;;;;;;;24.77;11.03;;;5.70;99.90;;;5.76;85.43;99937.53;5115526;28;20075;-68
2021/12/09 03:24:49;;;;;;;25.52;10.65;;;5.70;99.90;;;5.64;86.00;99937.53;5116000;28;20093;-68
2021/12/09 03:27:18;;;;;;;25.65;10.68;;;5.70;99.90;;;5.71;86.10;99946.28;5097847;28;20052;-68
2021/12/09 03:29:47;;;;;;;30.50;10.87;;;5.70;99.90;;;5.72;85.94;99938.41;5115829;28;20390;-68
2021/12/09 03:32:22;;;;;;;32.60;10.23;;;5.60;99.90;;;5.72;85.84;99950.63;5115718;28;20519;-69
2021/12/09 03:34:51;;;;;;;27.37;10.50;;;5.60;99.90;;;5.65;85.89;99930.53;5115698;28;20507;-69
2021/12/09 03:37:24;;;;;;;26.70;9.30;;;5.70;99.90;;;5.73;85.96;99955.03;5115656;28;20054;-69
2021/12/09 03:39:53;;;;;;;25.37;9.70;;;5.60;99.90;;;5.73;85.91;99949.78;5115742;28;20051;-68
2021/12/09 03:42:31;;;;;;;28.40;10.93;;;5.60;99.90;;;5.75;85.82;99945.41;5115638;28;20091;-68
2021/12/09 03:45:00;;;;;;;26.93;10.13;;;5.60;99.90;;;5.74;86.21;99938.38;5115673;28;20044;-68
2021/12/09 03:47:32;;;;;;;38.72;10.88;;;5.60;99.90;;;5.71;85.86;99946.28;5116140;28;20122;-68
2021/12/09 03:50:04;;;;;;;28.17;10.87;;;5.60;99.90;;;5.68;86.15;99949.75;5115852;28;20055;-69
2021/12/09 03:52:34;;;;;;;32.73;10.67;;;5.60;99.90;;;5.63;86.34;99946.28;5115740;28;20039;-68
2021/12/09 03:55:05;;;;;;;30.15;10.82;;;5.50;99.90;;;5.69;86.48;99956.75;5115310;28;20093;-68
2021/12/09 03:57:34;;;;;;;32.87;11.77;;;5.60;99.90;;;5.67;86.19;99952.38;5115611;28;20050;-68
2021/12/09 04:00:06;;;;;;;28.40;10.23;;;5.60;99.90;;;5.67;86.24;99955.88;5115530;28;20035;-68
2021/12/09 04:02:35;;;;;;;31.60;9.93;;;5.60;99.90;;;5.65;86.43;99954.13;5115564;28;20105;-68
2021/12/09 04:05:06;;;;;;;24.90;10.63;;;5.60;99.90;;;5.57;86.04;99950.63;5115204;28;20040;-68
2021/12/09 04:07:36;;;;;;;28.27;10.33;;;5.60;99.90;;;5.55;86.58;99948.00;5115170;28;20163;-68
2021/12/09 04:10:07;;;;;;;30.42;11.30;;;5.50;99.90;;;5.62;86.49;99941.00;5115370;28;20146;-69
2021/12/09 04:12:35;;;;;;;31.90;10.80;;;5.50;99.90;;;5.62;86.41;99954.13;5115000;28;20060;-68
2021/12/09 04:15:05;;;;;;;28.20;10.70;;;5.50;99.90;;;5.65;86.41;99941.03;5114820;28;20544;-68
2021/12/09 04:17:33;;;;;;;18.90;10.57;;;5.50;99.90;;;5.61;86.22;99944.50;5114961;28;20039;-68
2021/12/09 04:20:03;;;;;;;25.83;10.43;;;5.60;99.90;;;5.59;86.42;99939.28;5115129;28;20044;-68
2021/12/09 04:22:31;;;;;;;29.23;10.80;;;5.50;99.90;;;5.56;86.48;99947.13;5114736;28;20039;-68
2021/12/09 04:25:01;;;;;;;25.33;10.17;;;5.50;99.90;;;5.57;86.71;99953.25;5114777;28;20035;-68
2021/12/09 04:27:29;;;;;;;21.42;9.68;;;5.50;99.90;;;5.57;86.85;99937.53;5115007;28;20035;-68
2021/12/09 04:29:58;;;;;;;32.83;10.43;;;5.50;99.90;;;5.56;86.42;99947.13;5096610;28;20459;-68
2021/12/09 04:32:26;;;;;;;25.23;10.40;;;5.50;99.90;;;5.48;86.67;99927.88;5114065;28;20065;-68
2021/12/09 04:34:59;;;;;;;23.70;10.07;;;5.50;99.90;;;5.62;86.68;99948.88;5114563;28;20036;-68
2021/12/09 04:37:27;;;;;;;31.60;10.67;;;5.50;99.90;;;5.57;86.85;99959.38;5114840;28;20031;-68
2021/12/09 04:39:56;;;;;;;24.83;10.37;;;5.50;99.90;;;5.54;86.76;99951.50;5114427;28;20108;-69
2021/12/09 04:42:26;;;;;;;31.50;11.37;;;5.50;99.90;;;5.54;86.70;99954.13;5114434;28;20048;-68
2021/12/09 04:44:55;;;;;;;21.40;10.15;;;5.50;99.90;;;5.57;86.94;99962.00;5114460;28;20546;-68
2021/12/09 04:47:23;;;;;;;29.70;11.40;;;5.50;99.90;;;5.48;86.63;99948.84;5114443;28;20071;-68
2021/12/09 04:49:52;;;;;;;23.97;10.37;;;5.50;99.90;;;5.64;86.50;99969.00;5114536;28;20059;-68
2021/12/09 04:52:21;;;;;;;25.10;10.37;;;5.50;99.90;;;5.64;86.30;99971.63;5114232;28;20043;-68
2021/12/09 04:54:49;;;;;;;26.27;10.83;;;5.60;99.90;;;5.66;86.34;99980.34;5114084;28;20443;-68
2021/12/09 04:57:18;;;;;;;32.57;11.00;;;5.60;99.90;;;5.60;86.70;99975.09;5114129;28;20073;-68
2021/12/09 04:59:48;;;;;;;21.30;10.13;;;5.50;99.90;;;5.51;86.43;99956.75;5114048;28;20093;-68
2021/12/09 05:02:25;;;;;;;25.15;9.43;;;5.50;99.90;;;5.66;86.54;99977.72;5096171;28;20043;-68
2021/12/09 05:04:54;;;;;;;26.87;10.63;;;5.60;99.90;;;5.60;86.54;99982.09;5114500;28;20047;-68
2021/12/09 05:07:22;;;;;;;30.73;10.33;;;5.50;99.90;;;5.64;86.80;99989.97;5113913;28;20134;-69
2021/12/09 05:09:52;;;;;;;23.47;9.83;;;5.50;99.90;;;5.69;86.71;99987.38;5114129;28;20075;-69
2021/12/09 05:12:22;;;;;;;21.17;9.63;;;5.60;99.90;;;5.68;86.29;99991.72;5114135;28;20096;-68
2021/12/09 05:14:51;;;;;;;28.38;9.68;;;5.60;99.90;;;5.72;86.43;99988.25;5114629;28;20452;-67
2021/12/09 05:17:20;;;;;;;25.27;10.57;;;5.60;99.90;;;5.72;86.15;99987.34;5113808;28;20063;-67
2021/12/09 05:19:49;;;;;;;29.57;9.77;;;5.60;99.90;;;5.80;86.00;99994.38;5113704;28;20364;-67
2021/12/09 05:22:18;;;;;;;32.13;11.33;;;5.70;99.90;;;5.83;85.91;99989.13;5113923;28;20043;-67
2021/12/09 05:24:49;;;;;;;23.63;10.60;;;5.70;99.90;;;5.80;85.53;99988.25;5113577;28;20096;-68
2021/12/09 05:27:18;;;;;;;;;;;5.70;99.90;;;5.69;85.42;99958.50;5114172;28;20039;-69
2021/12/09 05:29:54;;;;;;;25.47;9.73;;;5.80;99.90;;;5.91;85.06;99994.38;5113571;28;19924;-69
2021/12/09 05:32:23;;;;;;;31.83;10.20;;;5.80;99.90;;;5.90;85.40;99996.16;5113663;28;20047;-69
2021/12/09 05:34:51;;;;;;;30.23;10.93;;;5.80;99.90;;;5.85;85.06;99983.88;5113453;28;20067;-69
2021/12/09 05:37:25;;;;;;;31.43;9.77;;;5.70;99.90;;;5.85;85.39;99995.25;5113651;28;20446;-69
2021/12/09 05:39:56;;;;;;;24.83;9.90;;;5.70;99.90;;;5.87;85.93;99988.28;5113488;28;20077;-68
2021/12/09 05:42:30;;;;;;;27.77;10.10;;;5.70;99.90;;;5.82;85.86;99992.63;5113517;28;20097;-68
2021/12/09 05:44:59;;;;;;;27.47;9.07;;;5.70;99.90;;;5.72;85.87;99972.50;5113216;28;20085;-68
2021/12/09 05:47:30;;;;;;;23.07;9.83;;;5.70;99.90;;;5.86;85.90;99991.78;5113720;28;20067;-68
2021/12/09 05:49:59;;;;;;;31.87;10.47;;;5.70;99.90;;;5.82;86.03;99994.38;5113810;28;20047;-69
2021/12/09 05:52:28;;;;;;;27.30;9.47;;;5.70;99.90;;;5.69;86.04;99982.13;5113627;28;20048;-69
2021/12/09 05:54:56;;;;;;;27.80;10.07;;;5.70;99.90;;;5.85;86.07;99999.63;5095320;28;20075;-69
2021/12/09 05:57:24;;;;;;;32.43;10.37;;;5.70;99.90;;;5.81;86.30;100001.34;5113301;28;20097;-69
2021/12/09 05:59:54;;;;;;;25.70;9.40;;;5.70;99.90;;;5.75;86.84;99982.97;5113400;28;20116;-69
2021/12/09 06:02:23;;;;;;;23.60;9.52;;;5.70;99.90;;;5.77;87.14;99999.59;5113203;28;20044;-68
2021/12/09 06:04:53;;;;;;;24.10;9.90;;;5.60;99.90;;;5.79;86.91;99994.38;5113307;28;20067;-69
2021/12/09 06:07:21;;;;;;;24.27;9.15;;;5.70;99.90;;;5.76;87.12;99991.72;5113772;28;20401;-69
2021/12/09 06:09:50;;;;;;;23.87;10.30;;;5.70;99.90;;;5.71;86.94;99999.59;5113404;28;20081;-68
2021/12/09 06:12:19;;;;;;;32.00;9.93;;;5.70;99.90;;;5.72;87.24;99998.72;5113845;28;20067;-69
2021/12/09 06:14:48;;;;;;;29.55;9.88;;;5.60;99.90;;;5.74;87.28;100004.84;5113317;28;20043;-69
2021/12/09 06:17:16;;;;;;;25.53;10.57;;;5.60;99.90;;;5.81;87.03;100005.72;5113017;28;20492;-68
2021/12/09 06:19:45;;;;;;;30.77;10.40;;;5.70;99.90;;;5.72;87.22;99980.38;5112880;28;20051;-69
2021/12/09 06:22:14;;;;;;;30.03;10.17;;;5.70;99.90;;;5.82;86.78;100005.75;5113075;28;20097;-69
2021/12/09 06:24:44;;;;;;;22.77;9.98;;;5.70;99.90;;;5.82;87.28;100012.72;5112972;28;20048;-69
2021/12/09 06:27:14;;;;;;;26.15;10.02;;;5.70;99.90;;;5.86;86.96;100012.78;5112866;28;20500;-69
2021/12/09 06:29:42;;;;;;;28.00;10.43;;;5.70;99.90;;;5.83;87.16;100011.84;5112942;28;20109;-69
2021/12/09 06:32:12;;;;;;;34.47;10.07;;;5.70;99.90;;;5.72;87.39;100009.22;5113138;28;20051;-69
2021/12/09 06:34:40;;;;;;;21.50;10.10;;;5.70;99.90;;;5.75;87.39;100019.69;5112756;28;20043;-69
2021/12/09 06:37:09;;;;;;;27.17;9.73;;;5.70;99.90;;;5.71;87.86;100001.34;5112910;28;20078;-69
2021/12/09 06:39:39;;;;;;;25.23;9.80;;;5.70;99.90;;;5.74;88.18;100002.22;5112843;28;20048;-69
2021/12/09 06:42:10;;;;;;;25.98;10.57;;;5.70;99.90;;;5.88;88.30;100007.53;5112803;28;20040;-69
2021/12/09 06:44:38;;;;;;;24.52;10.75;;;5.80;99.90;;;5.92;88.00;100007.50;5112539;28;20036;-68
2021/12/09 06:47:07;;;;;;;28.10;9.97;;;5.80;99.90;;;5.94;87.99;100010.16;5113319;28;20046;-69
2021/12/09 06:49:35;;;;;;;32.00;10.30;;;5.80;99.90;;;5.95;87.85;100006.63;5113020;28;20060;-69
2021/12/09 06:52:05;;;;;;;25.77;10.00;;;5.80;99.90;;;5.93;87.55;100016.25;5112734;28;20089;-69
2021/12/09 06:54:33;;;;;;;29.10;11.03;;;5.80;99.90;;;5.89;87.96;100002.25;5094680;28;20044;-68
2021/12/09 06:57:04;;;;;;;30.87;10.60;;;5.80;99.90;;;5.92;87.88;100010.13;5115139;28;20040;-69
2021/12/09 06:59:32;;;;;;;28.48;11.50;;;5.80;99.90;;;5.95;87.78;100007.53;5116411;28;20466;-69
2021/12/09 07:02:01;;;;;;;30.03;10.37;;;5.80;99.90;;;5.96;87.68;100011.03;5116131;28;20039;-69
2021/12/09 07:04:30;;;;;;;28.33;9.97;;;5.80;99.90;;;6.03;87.61;100015.38;5116294;28;20046;-69
2021/12/09 07:06:58;;;;;;;22.53;10.33;;;5.90;99.90;;;6.02;87.65;100016.28;5116629;28;20164;-69
2021/12/09 07:09:28;;;;;;;24.97;9.93;;;5.90;99.90;;;6.01;87.49;100019.75;5116457;28;20451;-70
2021/12/09 07:11:58;;;;;;;26.67;9.65;;;5.90;99.90;;;5.67;87.50;99961.09;5116109;28;20051;-69
2021/12/09 07:14:28;;;;;;;22.37;10.30;;;5.80;99.90;;;5.90;87.96;100019.78;5116064;28;20097;-69
2021/12/09 07:17:00;;;;;;;28.33;10.57;;;5.80;99.90;;;5.89;87.93;100025.88;5116293;28;20043;-69
2021/12/09 07:19:29;;;;;;;25.00;10.27;;;5.80;99.90;;;5.79;88.25;100016.22;5115906;28;20548;-69
2021/12/09 07:21:58;;;;;;;26.57;10.57;;;5.80;99.90;;;5.81;88.27;100014.47;5115812;28;20051;-69
2021/12/09 07:24:26;;;;;;;24.17;10.10;;;5.70;99.90;;;5.80;88.93;100022.34;5116347;28;20047;-69
2021/12/09 07:26:57;;;;;;;25.57;11.80;;;5.70;99.90;;;5.87;89.41;100019.75;5115866;28;20078;-69
2021/12/09 07:29:27;;;;;;;25.58;12.07;;;5.80;99.90;;;5.80;89.55;100020.59;5116724;28;20564;-69
2021/12/09 07:31:56;;;;;;;33.73;12.70;;;5.70;99.90;;;5.77;89.79;100023.22;5115886;28;20101;-69
2021/12/09 07:34:25;;;;;;;26.93;12.90;;;5.70;99.90;;;5.83;89.95;100028.50;5116067;28;20043;-69
2021/12/09 07:36:54;;;;;;;28.90;12.13;;;5.70;99.90;;;5.95;89.98;100027.63;5116143;28;20434;-70
2021/12/09 07:39:22;;;;;;;28.10;12.43;;;5.80;99.90;;;5.97;90.00;100036.38;5115623;28;20039;-69
2021/12/09 07:41:50;;;;;;;23.90;12.00;;;5.80;99.90;;;6.04;90.02;100035.53;5115865;28;20067;-69
2021/12/09 07:44:20;;;;;;;25.13;11.77;;;5.90;99.90;;;6.09;89.78;100039.91;5115770;28;20112;-69
2021/12/09 07:46:51;;;;;;;25.83;12.60;;;6.00;99.90;;;6.18;89.81;100049.50;5097595;28;20463;-69
2021/12/09 07:49:20;;;;;;;25.43;11.97;;;6.00;99.90;;;6.22;89.59;100052.16;5115766;28;20075;-69
2021/12/09 07:51:49;;;;;;;28.47;11.60;;;6.10;99.90;;;6.21;89.80;100047.75;5115439;28;20071;-69
2021/12/09 07:54:18;;;;;;;26.13;11.17;;;6.10;99.90;;;6.26;89.32;100053.91;5115347;28;20124;-69
2021/12/09 07:56:47;;;;;;;28.70;11.68;;;6.20;99.90;;;6.25;89.52;100044.25;5097265;28;20401;-68
2021/12/09 07:59:16;;;;;;;29.05;12.82;;;6.20;99.90;;;6.32;89.51;100051.28;5115232;28;20496;-75
2021/12/09 08:01:45;;;;;;;27.77;11.37;;;6.20;99.90;;;6.29;89.53;100043.38;5115744;28;20354;-71
2021/12/09 08:04:17;;;;;;;18.38;11.05;;;6.20;99.90;;;6.41;89.57;100052.16;5115763;28;20089;-75
2021/12/09 08:06:45;;;;;;;26.45;12.48;;;6.30;99.90;;;6.50;89.31;100062.63;5115492;28;20047;-77
2021/12/09 08:09:14;;;;;;;23.77;11.55;;;6.40;99.90;;;6.49;89.17;100053.88;5097437;28;20117;-77
2021/12/09 08:11:44;;;;;;;25.90;12.40;;;6.40;99.90;;;6.56;89.39;100070.50;5115283;28;20437;-73
2021/12/09 08:14:15;;;;;;;25.58;12.20;;;6.40;99.90;;;6.48;89.66;100059.13;5115498;28;20036;-70
2021/12/09 08:16:44;;;;;;;27.93;12.50;;;6.40;99.90;;;6.56;89.28;100071.38;5115176;28;20046;-75
2021/12/09 08:19:15;;;;;;;36.80;13.40;;;6.50;99.90;;;6.59;89.24;100067.84;5115192;28;20104;-73
2021/12/09 08:21:43;;;;;;;25.97;12.80;;;6.50;99.90;;;6.52;89.41;100084.50;5096724;28;20493;-74
2021/12/09 08:24:12;;;;;;;29.37;12.97;;;6.50;99.90;;;6.57;89.64;100077.50;5114996;28;20047;-73
2021/12/09 08:26:42;;;;;;;27.23;12.93;;;6.40;99.90;;;6.61;89.66;100064.38;5114636;28;20044;-71
2021/12/09 08:29:10;;;;;;;26.83;12.68;;;6.50;99.90;;;6.59;89.48;100081.88;5115175;28;20036;-76
2021/12/09 08:31:39;;;;;;;25.05;12.50;;;6.50;99.90;;;6.51;89.75;100080.13;5114585;28;20096;-78
2021/12/09 08:34:17;;;;;;;27.40;12.20;;;6.50;99.90;;;6.54;90.15;100072.25;5114560;28;20040;-76
2021/12/09 08:36:54;;;;;;;31.07;13.10;;;6.50;99.90;;;6.60;90.21;100069.63;5114639;28;20139;-76
2021/12/09 08:39:22;;;;;;;30.67;13.00;;;6.50;99.90;;;6.52;90.38;100047.75;5114735;28;20123;-76
2021/12/09 08:41:51;;;;;;;29.58;14.68;;;6.50;99.90;;;6.71;90.23;100075.72;5114341;28;20093;-75
2021/12/09 08:44:20;;;;;;;26.50;12.47;;;6.60;99.90;;;6.75;90.42;100070.47;5114342;28;20077;-76
2021/12/09 08:46:48;;;;;;;33.10;13.63;;;6.60;99.90;;;6.60;90.17;100043.34;5114280;28;20552;-76
2021/12/09 08:49:18;;;;;;;30.27;13.45;;;6.60;99.90;;;6.77;90.11;100073.09;5114251;28;20056;-79
2021/12/09 08:51:47;;;;;;;35.83;14.10;;;6.70;99.90;;;6.74;90.21;100078.34;5114381;28;20100;-78
2021/12/09 08:54:16;;;;;;;26.75;14.00;;;6.60;99.90;;;6.75;90.36;100085.34;5114238;28;20035;-79
2021/12/09 08:56:50;;;;;;;33.00;13.55;;;6.60;99.90;;;6.86;90.11;100083.56;5114053;28;20131;-76
2021/12/09 08:59:21;;;;;;;26.65;12.85;;;6.70;99.90;;;6.86;90.12;100081.84;5114109;28;20058;-76
2021/12/09 09:02:07;;;;;;;29.57;14.23;;;6.80;99.90;;;6.86;89.95;100075.69;5114412;28;20040;-75
2021/12/09 09:04:38;;;;;;;28.83;13.97;;;6.80;99.90;;;6.74;89.87;100070.47;5113999;28;20032;-76
2021/12/09 09:07:08;;;;;;;28.92;14.80;;;6.80;99.90;;;6.91;90.30;100080.06;5114508;28;20051;-77
2021/12/09 09:09:38;;;;;;;28.17;14.55;;;6.80;99.90;;;6.94;90.02;100076.56;5113843;28;20044;-76
2021/12/09 09:12:10;;;;;;;30.90;14.50;;;6.80;99.90;;;6.95;89.98;100081.81;5114442;28;20047;-76
2021/12/09 09:14:38;;;;;;;32.72;15.93;;;6.80;99.90;;;6.93;90.42;100083.56;5114092;28;20093;-75
2021/12/09 09:17:08;;;;;;;29.42;13.68;;;6.80;99.90;;;6.91;90.45;100087.09;5113657;28;20048;-76
2021/12/09 09:19:37;;;;;;;32.78;15.25;;;6.80;99.90;;;6.99;90.17;100090.53;5113419;28;20032;-76
2021/12/09 09:22:06;;;;;;;27.48;13.65;;;6.80;99.90;;;7.06;89.97;100092.28;5113827;28;20039;-76
2021/12/09 09:24:35;;;;;;;29.50;15.55;;;6.90;99.90;;;7.06;90.24;100097.56;5095655;28;20133;-76
2021/12/09 09:27:04;;;;;;;25.42;14.68;;;6.90;99.90;;;7.09;90.46;100092.28;5113644;28;20492;-76
2021/12/09 09:29:34;;;;;;;24.10;14.43;;;7.00;99.90;;;7.14;90.50;100101.91;5113652;28;20067;-77
2021/12/09 09:32:04;;;;;;;25.95;13.95;;;7.00;99.90;;;7.06;90.75;100101.06;5095637;28;20484;-77
2021/12/09 09:34:33;;;;;;;28.13;15.45;;;7.00;99.90;;;7.03;90.99;100094.91;5113907;28;20091;-78
2021/12/09 09:37:04;;;;;;;32.80;15.95;;;6.90;99.90;;;7.07;90.85;100099.28;5095709;28;20157;-77
2021/12/09 09:39:33;;;;;;;25.30;14.35;;;6.90;99.90;;;7.04;91.04;100081.78;5095824;28;20051;-77
2021/12/09 09:42:20;;;;;;;28.45;14.57;;;7.00;99.90;;;7.09;91.24;100101.03;5113443;28;20035;-77
2021/12/09 09:44:55;;;;;;;28.23;14.88;;;7.00;99.90;;;7.09;91.84;100100.16;5113768;28;20458;-76
2021/12/09 09:47:26;;;;;;;27.10;14.70;;;7.00;99.90;;;6.94;91.87;100085.31;5113694;28;20039;-78
2021/12/09 09:49:57;;;;;;;29.98;14.82;;;6.90;99.90;;;7.03;91.75;100105.44;5113924;28;20404;-76
2021/12/09 09:52:28;;;;;;;26.92;14.02;;;6.90;99.90;;;7.03;91.80;100106.31;5113373;28;20073;-77
2021/12/09 09:54:56;;;;;;;30.00;14.70;;;6.90;99.90;;;7.10;92.06;100113.28;5113986;28;20039;-77
2021/12/09 09:57:25;;;;;;;26.70;14.93;;;6.90;99.90;;;7.18;91.91;100121.19;5113513;28;20065;-77
2021/12/09 09:59:54;;;;;;;23.33;13.25;;;7.00;99.90;;;7.13;92.17;100105.41;5113297;28;20065;-77
2021/12/09 10:02:23;;;;;;;23.05;14.20;;;7.00;99.90;;;7.19;92.18;100109.78;5113440;28;20443;-77
2021/12/09 10:05:00;;;;;;;23.33;14.10;;;7.10;99.90;;;7.14;91.93;100117.66;5113327;28;20066;-75
2021/12/09 10:07:32;;;;;;;27.30;16.45;;;7.10;99.90;;;7.14;92.00;100115.03;5113302;28;20104;-77
2021/12/09 10:10:01;;;;;;;27.55;14.75;;;7.00;99.90;;;7.13;92.31;100131.72;5113126;28;20047;-77
2021/12/09 10:12:30;;;;;;;25.55;14.80;;;7.10;99.90;;;7.19;92.61;100113.28;5112757;28;20044;-77
2021/12/09 10:14:58;;;;;;;28.27;15.38;;;7.10;99.90;;;7.23;92.40;100109.78;5113088;28;20508;-77
2021/12/09 10:17:29;;;;;;;30.35;16.65;;;7.10;99.90;;;7.29;92.67;100103.63;5113002;28;20047;-77
2021/12/09 10:20:11;;;;;;;28.50;14.55;;;7.20;99.90;;;7.25;92.66;100104.50;5113336;28;20146;-77
2021/12/09 10:22:41;;;;;;;26.25;14.02;;;7.10;99.90;;;7.30;92.84;100089.56;5113358;28;20504;-77
2021/12/09 10:25:19;;;;;;;26.00;14.85;;;7.20;99.90;;;7.25;92.54;100079.09;5113055;28;20036;-77
2021/12/09 10:27:58;;;;;;;26.05;14.25;;;7.20;99.90;;;7.24;92.50;100094.84;5113092;28;20047;-76
2021/12/09 10:30:29;;;;;;;21.60;14.05;;;7.10;99.90;;;7.21;92.63;100094.88;5112923;28;20556;-76